Terminal Aerodrome Forecast
Issued by NWS

Home | Current Version | Previous Version | Text Only | Print | Product List | Glossary On
Versions: 1 2 3 4 5 6 7 8 9 10 11 12 13 14 15 16 17 18 19 20 21 22 23 24 25 26 27 28 29 30 31 32 33 34 35 36 37 38 39 40 41 42 43 44 45
000
FTUS46 KPQR 241121
TAFONP
TAF
KONP 241121Z 2412/2512 VRB03KT P6SM OVC017
     FM241900 34010KT P6SM BKN025
     FM242100 34011KT P6SM FEW025 BKN045
     FM250300 31005KT P6SM OVC025
     FM250900 28006KT P6SM OVC007=

USA.gov is the U.S. government's official web portal to all federal, state and local government web resources and services.